createdAt,value
2018-07-03T00:01:00.341Z,511.87
2018-07-03T00:03:27.593Z,508.63
2018-07-03T00:05:54.828Z,511.67
2018-07-03T00:08:22.040Z,511.60
2018-07-03T00:10:49.276Z,512.87
2018-07-03T00:13:16.498Z,510.57
2018-07-03T00:15:43.701Z,508.77
2018-07-03T00:18:11.142Z,512.57
2018-07-03T00:20:38.396Z,517.40
2018-07-03T00:23:05.640Z,511.17
2018-07-03T00:25:32.897Z,508.23
2018-07-03T00:28:00.116Z,512.83
2018-07-03T00:30:27.849Z,511.43
2018-07-03T00:32:55.073Z,505.60
2018-07-03T00:35:22.321Z,506.03
2018-07-03T00:37:49.553Z,512.03
2018-07-03T00:40:16.788Z,508.57
2018-07-03T00:42:44.030Z,506.73
2018-07-03T00:45:11.255Z,510.73
2018-07-03T00:47:38.479Z,508.93
2018-07-03T00:50:05.691Z,503.97
2018-07-03T00:52:32.904Z,518.53
2018-07-03T00:55:00.117Z,503.70
2018-07-03T00:57:27.318Z,503.60
2018-07-03T01:00:06.066Z,511.80
2018-07-03T01:02:33.310Z,503.40
2018-07-03T01:05:00.536Z,503.60
2018-07-03T01:07:27.806Z,503.50
2018-07-03T01:09:55.068Z,504.20
2018-07-03T01:12:22.320Z,507.33
2018-07-03T01:14:49.541Z,501.83
2018-07-03T01:17:16.766Z,502.47
2018-07-03T01:19:44.004Z,500.67
2018-07-03T01:22:11.207Z,500.87
2018-07-03T01:24:38.436Z,501.03
2018-07-03T01:27:05.685Z,502.30
2018-07-03T01:29:32.907Z,498.73
2018-07-03T01:32:00.114Z,499.73
2018-07-03T01:34:27.527Z,503.07
2018-07-03T01:36:54.749Z,500.97
2018-07-03T01:39:21.964Z,501.87
2018-07-03T01:41:49.189Z,497.30
2018-07-03T01:44:18.205Z,506.67
2018-07-03T01:46:45.377Z,504.40
2018-07-03T01:49:12.538Z,496.83
2018-07-03T01:51:39.710Z,498.80
2018-07-03T01:54:06.894Z,501.70
2018-07-03T01:56:34.065Z,501.10
2018-07-03T01:59:01.241Z,504.83
2018-07-03T02:01:28.409Z,496.90
2018-07-03T02:03:55.569Z,498.63
2018-07-03T02:06:22.797Z,498.77
2018-07-03T02:08:50.038Z,498.60
2018-07-03T02:11:17.277Z,498.63
2018-07-03T02:13:44.497Z,496.77
2018-07-03T02:16:11.717Z,499.43
2018-07-03T02:18:38.924Z,493.90
2018-07-03T02:21:06.142Z,496.50
2018-07-03T02:23:33.357Z,495.57
2018-07-03T02:26:00.584Z,501.30
2018-07-03T02:28:27.801Z,496.47
2018-07-03T02:30:55.150Z,498.37
2018-07-03T02:33:22.443Z,497.40
2018-07-03T02:35:49.694Z,496.97
2018-07-03T02:38:16.903Z,494.20
2018-07-03T02:40:44.126Z,495.43
2018-07-03T02:43:11.371Z,499.10
2018-07-03T02:45:38.601Z,494.77
2018-07-03T02:48:05.860Z,496.70
2018-07-03T02:50:33.074Z,493.07
2018-07-03T02:53:00.309Z,497.37
2018-07-03T02:55:27.529Z,489.70
2018-07-03T02:57:54.750Z,492.07
2018-07-03T03:00:21.985Z,497.57
2018-07-03T03:02:49.199Z,493.10
2018-07-03T03:05:16.422Z,492.67
2018-07-03T03:07:44.017Z,493.03
2018-07-03T03:10:11.238Z,492.30
2018-07-03T03:12:39.609Z,493.13
2018-07-03T03:15:10.111Z,492.07
2018-07-03T03:17:38.994Z,496.80
2018-07-03T03:20:08.937Z,490.53
2018-07-03T03:22:38.487Z,489.80
2018-07-03T03:25:05.765Z,490.17
2018-07-03T03:27:32.997Z,490.90
2018-07-03T03:30:00.226Z,493.27
2018-07-03T03:32:27.506Z,490.63
2018-07-03T03:34:54.905Z,504.47
2018-07-03T03:37:23.421Z,490.67
2018-07-03T03:39:50.641Z,499.57
2018-07-03T03:42:17.843Z,496.43
2018-07-03T03:44:45.053Z,495.43
2018-07-03T03:47:12.282Z,493.43
2018-07-03T03:49:39.509Z,489.53
2018-07-03T03:52:06.736Z,491.17
2018-07-03T03:54:34.209Z,493.50
2018-07-03T03:57:01.581Z,493.10
2018-07-03T03:59:28.742Z,490.73
2018-07-03T04:01:55.913Z,489.37
2018-07-03T04:04:23.105Z,490.07
2018-07-03T04:06:50.260Z,492.10
2018-07-03T04:09:17.425Z,489.80
2018-07-03T04:11:44.586Z,490.67
2018-07-03T04:14:11.747Z,497.53
2018-07-03T04:16:38.917Z,490.17
2018-07-03T04:19:06.107Z,491.97
2018-07-03T04:21:33.296Z,494.10
2018-07-03T04:24:00.481Z,489.10
2018-07-03T04:26:27.641Z,488.07
2018-07-03T04:28:54.836Z,490.70
2018-07-03T04:31:21.993Z,491.70
2018-07-03T04:33:49.223Z,494.40
2018-07-03T04:36:16.381Z,490.13
2018-07-03T04:38:43.545Z,497.40
2018-07-03T04:41:10.717Z,492.20
2018-07-03T04:43:37.873Z,495.67
2018-07-03T04:46:05.054Z,491.87
2018-07-03T04:48:32.233Z,490.23
2018-07-03T04:50:59.434Z,496.30
2018-07-03T04:53:26.693Z,487.57
2018-07-03T04:55:53.850Z,489.70
2018-07-03T04:58:21.056Z,487.67
2018-07-03T05:00:48.273Z,493.30
2018-07-03T05:03:15.481Z,494.80
2018-07-03T05:05:42.715Z,496.77
2018-07-03T05:08:09.931Z,492.80
2018-07-03T05:10:37.164Z,491.97
2018-07-03T05:13:04.365Z,491.60
2018-07-03T05:15:31.639Z,496.37
2018-07-03T05:17:58.858Z,494.63
2018-07-03T05:20:26.105Z,494.67
2018-07-03T05:22:53.321Z,489.17
2018-07-03T05:25:20.540Z,495.37
2018-07-03T05:27:47.751Z,498.77
2018-07-03T05:30:15.010Z,495.03
2018-07-03T05:32:42.228Z,491.50
2018-07-03T05:35:09.450Z,497.33
2018-07-03T05:37:36.690Z,494.80
2018-07-03T05:40:04.453Z,496.33
2018-07-03T05:42:31.671Z,492.67
2018-07-03T05:44:58.916Z,495.67
2018-07-03T05:47:26.144Z,495.93
2018-07-03T05:49:53.492Z,501.07
2018-07-03T05:52:20.707Z,499.47
2018-07-03T05:54:47.949Z,494.63
2018-07-03T05:57:15.185Z,495.67
2018-07-03T05:59:42.404Z,497.33
2018-07-03T06:02:09.647Z,497.10
2018-07-03T06:04:36.861Z,499.30
2018-07-03T06:07:04.275Z,502.23
2018-07-03T06:09:31.506Z,504.10
2018-07-03T06:11:58.745Z,497.77
2018-07-03T06:14:25.965Z,502.03
2018-07-03T06:16:54.634Z,498.53
2018-07-03T06:19:22.501Z,500.13
2018-07-03T06:21:50.292Z,498.73
2018-07-03T06:24:17.518Z,502.93
2018-07-03T06:26:44.785Z,507.87
2018-07-03T06:29:12.004Z,505.27
2018-07-03T06:31:39.367Z,502.60
2018-07-03T06:34:06.450Z,506.60
2018-07-03T06:36:33.661Z,505.53
2018-07-03T06:39:00.869Z,507.00
2018-07-03T06:41:28.098Z,511.07
2018-07-03T06:43:55.317Z,508.40
2018-07-03T06:46:22.545Z,513.27
2018-07-03T06:48:49.758Z,511.53
2018-07-03T06:51:16.976Z,511.57
2018-07-03T06:53:44.158Z,515.33
2018-07-03T06:56:11.325Z,521.27
2018-07-03T06:58:38.502Z,530.07
2018-07-03T07:01:05.690Z,548.30
2018-07-03T07:03:32.862Z,561.43
2018-07-03T07:06:00.070Z,570.67
2018-07-03T07:08:27.281Z,588.73
2018-07-03T07:10:54.461Z,593.13
2018-07-03T07:13:21.663Z,620.63
2018-07-03T07:15:48.841Z,663.00
2018-07-03T07:18:16.015Z,672.80
2018-07-03T07:20:43.181Z,682.50
2018-07-03T07:23:10.365Z,744.60
2018-07-03T07:25:37.553Z,724.03
2018-07-03T07:28:04.733Z,761.87
2018-07-03T07:30:31.917Z,750.13
2018-07-03T07:32:59.176Z,751.67
2018-07-03T07:35:26.369Z,771.37
2018-07-03T07:37:53.521Z,781.83
2018-07-03T07:40:20.721Z,795.70
2018-07-03T07:42:47.958Z,778.70
2018-07-03T07:45:15.102Z,796.47
2018-07-03T07:47:42.261Z,792.47
2018-07-03T07:50:09.430Z,772.97
2018-07-03T07:52:36.669Z,809.30
2018-07-03T07:55:03.906Z,793.60
2018-07-03T07:57:31.125Z,794.30
2018-07-03T07:59:58.346Z,805.97
2018-07-03T08:02:25.545Z,807.20
2018-07-03T08:04:52.761Z,797.27
2018-07-03T08:07:19.971Z,772.53
2018-07-03T08:09:47.189Z,759.97
2018-07-03T08:12:14.416Z,759.73
2018-07-03T08:14:41.649Z,768.03
2018-07-03T08:17:08.877Z,755.90
2018-07-03T08:19:36.125Z,785.70
2018-07-03T08:22:03.413Z,793.77
2018-07-03T08:24:30.712Z,786.90
2018-07-03T08:26:57.946Z,809.23
2018-07-03T08:29:25.165Z,769.63
2018-07-03T08:31:52.394Z,763.10
2018-07-03T08:34:19.606Z,801.57
2018-07-03T08:36:46.812Z,773.33
2018-07-03T08:39:14.069Z,790.80
2018-07-03T08:41:41.621Z,787.20
2018-07-03T08:44:08.873Z,781.10
2018-07-03T08:46:36.125Z,751.97
2018-07-03T08:49:03.830Z,792.07
2018-07-03T08:51:31.062Z,760.67
2018-07-03T08:53:58.277Z,799.27
2018-07-03T08:56:25.505Z,812.00
2018-07-03T08:58:52.752Z,820.27
2018-07-03T09:01:20.006Z,814.50
2018-07-03T09:03:47.284Z,790.70
2018-07-03T09:06:14.489Z,754.93
2018-07-03T09:08:41.694Z,801.00
2018-07-03T09:11:08.917Z,791.10
2018-07-03T09:13:36.133Z,801.80
2018-07-03T09:16:03.373Z,767.10
2018-07-03T09:18:30.589Z,769.43
2018-07-03T09:20:57.817Z,797.07
2018-07-03T09:23:25.039Z,820.27
2018-07-03T09:25:52.266Z,826.47
2018-07-03T09:28:19.493Z,839.30
2018-07-03T09:30:46.737Z,844.20
2018-07-03T09:33:13.953Z,854.03
2018-07-03T09:35:41.201Z,841.43
2018-07-03T09:38:08.443Z,874.87
2018-07-03T09:40:36.690Z,839.97
2018-07-03T09:43:03.996Z,847.97
2018-07-03T09:45:31.225Z,857.23
2018-07-03T09:47:58.444Z,842.60
2018-07-03T09:50:26.145Z,820.90
2018-07-03T09:52:53.359Z,869.67
2018-07-03T09:55:20.599Z,840.83
2018-07-03T09:57:47.814Z,834.47
2018-07-03T10:00:18.417Z,849.43
2018-07-03T10:02:45.630Z,810.63
2018-07-03T10:05:12.834Z,845.83
2018-07-03T10:07:40.052Z,851.53
2018-07-03T10:10:07.261Z,807.23
2018-07-03T10:12:34.469Z,787.50
2018-07-03T10:15:01.673Z,788.23
2018-07-03T10:17:28.901Z,798.93
2018-07-03T10:19:56.113Z,799.90
2018-07-03T10:22:23.338Z,785.53
2018-07-03T10:24:50.562Z,868.00
2018-07-03T10:27:17.774Z,836.00
2018-07-03T10:29:44.974Z,827.70
2018-07-03T10:32:12.212Z,855.30
2018-07-03T10:34:39.429Z,841.17
2018-07-03T10:37:06.662Z,846.13
2018-07-03T10:39:33.861Z,835.00
2018-07-03T10:42:01.077Z,829.83
2018-07-03T10:44:28.280Z,842.30
2018-07-03T10:46:55.506Z,837.57
2018-07-03T10:49:22.719Z,846.40
2018-07-03T10:51:49.932Z,868.17
2018-07-03T10:54:17.121Z,859.73
2018-07-03T10:56:44.437Z,840.53
2018-07-03T10:59:11.595Z,831.80
2018-07-03T11:01:38.781Z,871.60
2018-07-03T11:04:05.966Z,849.77
2018-07-03T11:06:33.161Z,868.97
2018-07-03T11:09:00.446Z,853.93
2018-07-03T11:11:27.935Z,857.90
2018-07-03T11:13:55.157Z,843.43
2018-07-03T11:16:22.261Z,847.27
2018-07-03T11:18:49.429Z,863.20
2018-07-03T11:21:16.586Z,900.13
2018-07-03T11:23:43.785Z,873.87
2018-07-03T11:26:10.945Z,902.10
2018-07-03T11:28:38.117Z,862.73
2018-07-03T11:31:05.316Z,857.27
2018-07-03T11:33:32.593Z,862.27
2018-07-03T11:35:59.758Z,854.37
2018-07-03T11:38:26.918Z,845.37
2018-07-03T11:40:54.073Z,860.70
2018-07-03T11:43:21.242Z,837.57
2018-07-03T11:45:48.429Z,840.80
2018-07-03T11:48:15.621Z,829.97
2018-07-03T11:50:42.793Z,857.47
2018-07-03T11:53:09.985Z,805.07
2018-07-03T11:55:37.154Z,825.90
2018-07-03T11:58:04.372Z,825.37
2018-07-03T12:00:31.591Z,845.90
2018-07-03T12:02:58.764Z,793.83
2018-07-03T12:05:25.924Z,813.63
2018-07-03T12:07:53.265Z,786.47
2018-07-03T12:10:20.437Z,802.80
2018-07-03T12:12:47.901Z,788.43
2018-07-03T12:15:15.112Z,771.77
2018-07-03T12:17:42.303Z,790.67
2018-07-03T12:20:09.522Z,747.30
2018-07-03T12:22:36.680Z,766.47
2018-07-03T12:25:04.177Z,709.17
2018-07-03T12:27:31.337Z,697.43
2018-07-03T12:29:58.521Z,722.27
2018-07-03T12:32:25.673Z,673.30
2018-07-03T12:34:52.857Z,666.70
2018-07-03T12:37:20.053Z,635.20
2018-07-03T12:39:47.241Z,634.47
2018-07-03T12:42:14.581Z,633.57
2018-07-03T12:44:41.769Z,612.57
2018-07-03T12:47:08.913Z,622.23
2018-07-03T12:49:36.109Z,614.30
2018-07-03T12:52:03.290Z,599.73
2018-07-03T12:54:30.497Z,618.00
2018-07-03T12:56:57.674Z,637.33
2018-07-03T12:59:24.846Z,625.67
2018-07-03T13:01:52.029Z,613.27
2018-07-03T13:04:19.199Z,628.40
2018-07-03T13:06:46.420Z,610.33
2018-07-03T13:09:13.606Z,603.63
2018-07-03T13:11:41.117Z,657.43
2018-07-03T13:14:08.296Z,614.43
2018-07-03T13:16:35.490Z,628.17
2018-07-03T13:19:02.709Z,699.93
2018-07-03T13:21:29.912Z,649.27
2018-07-03T13:23:57.121Z,712.93
2018-07-03T13:26:24.305Z,723.47
2018-07-03T13:28:51.520Z,709.83
2018-07-03T13:31:18.705Z,716.83
2018-07-03T13:33:45.868Z,728.90
2018-07-03T13:36:13.061Z,748.50
2018-07-03T13:38:40.234Z,779.20
2018-07-03T13:41:07.673Z,756.13
2018-07-03T13:43:34.843Z,781.70
2018-07-03T13:46:02.063Z,764.63
2018-07-03T13:48:29.335Z,782.83
2018-07-03T13:50:56.461Z,770.77
2018-07-03T13:53:23.637Z,743.77
2018-07-03T13:55:50.816Z,771.67
2018-07-03T13:58:17.969Z,741.37
2018-07-03T14:00:45.150Z,710.07
2018-07-03T14:03:12.297Z,721.93
2018-07-03T14:05:39.457Z,698.97
2018-07-03T14:08:06.637Z,712.23
2018-07-03T14:10:33.808Z,696.03
2018-07-03T14:13:00.977Z,709.67
2018-07-03T14:15:28.176Z,709.27
2018-07-03T14:17:55.724Z,732.27
2018-07-03T14:20:22.909Z,708.27
2018-07-03T14:22:50.127Z,671.03
2018-07-03T14:25:17.317Z,633.37
2018-07-03T14:27:44.491Z,666.40
2018-07-03T14:30:11.655Z,671.83
2018-07-03T14:32:38.821Z,637.60
2018-07-03T14:35:05.998Z,650.50
2018-07-03T14:37:33.192Z,638.63
2018-07-03T14:40:00.370Z,642.07
2018-07-03T14:42:27.527Z,635.50
2018-07-03T14:44:54.744Z,652.90
2018-07-03T14:47:21.921Z,655.13
2018-07-03T14:49:49.073Z,619.97
2018-07-03T14:52:16.229Z,628.90
2018-07-03T14:54:43.441Z,649.90
2018-07-03T14:57:10.669Z,674.97
2018-07-03T14:59:37.873Z,662.40
2018-07-03T15:02:05.448Z,673.77
2018-07-03T15:04:32.651Z,661.13
2018-07-03T15:06:59.881Z,729.00
2018-07-03T15:09:27.102Z,701.80
2018-07-03T15:11:54.302Z,746.90
2018-07-03T15:14:21.509Z,727.90
2018-07-03T15:16:48.769Z,742.63
2018-07-03T15:19:21.665Z,776.80
2018-07-03T15:21:48.906Z,807.00
2018-07-03T15:24:16.101Z,812.97
2018-07-03T15:26:43.322Z,803.93
2018-07-03T15:29:11.545Z,799.40
2018-07-03T15:31:39.005Z,802.33
2018-07-03T15:34:08.193Z,812.67
2018-07-03T15:36:35.437Z,814.13
2018-07-03T15:39:04.559Z,809.90
2018-07-03T15:41:31.785Z,850.27
2018-07-03T15:44:10.324Z,842.33
2018-07-03T15:46:37.551Z,819.57
2018-07-03T15:49:04.759Z,817.50
2018-07-03T15:51:31.973Z,848.80
2018-07-03T15:53:59.141Z,805.67
2018-07-03T15:56:26.289Z,796.83
2018-07-03T15:58:53.481Z,801.93
2018-07-03T16:01:20.701Z,812.93
2018-07-03T16:03:59.325Z,793.20
2018-07-03T16:06:37.915Z,805.13
2018-07-03T16:09:10.025Z,796.63
2018-07-03T16:11:37.638Z,801.47
2018-07-03T16:14:04.854Z,792.67
2018-07-03T16:16:32.229Z,780.60
2018-07-03T16:19:05.094Z,777.00
2018-07-03T16:21:32.245Z,780.23
2018-07-03T16:23:59.415Z,808.33
2018-07-03T16:26:26.582Z,809.30
2018-07-03T16:28:54.339Z,789.10
2018-07-03T16:31:21.902Z,766.73
2018-07-03T16:33:49.091Z,774.87
2018-07-03T16:36:16.368Z,794.30
2018-07-03T16:38:43.544Z,781.93
2018-07-03T16:41:10.702Z,796.67
2018-07-03T16:43:37.865Z,800.57
2018-07-03T16:46:05.060Z,798.67
2018-07-03T16:48:32.230Z,785.47
2018-07-03T16:50:59.389Z,789.53
2018-07-03T16:53:26.557Z,791.87
2018-07-03T16:55:53.716Z,775.93
2018-07-03T16:58:20.889Z,758.43
2018-07-03T17:00:48.049Z,786.90
2018-07-03T17:03:15.229Z,751.47
2018-07-03T17:05:42.363Z,752.03
2018-07-03T17:08:09.566Z,761.17
2018-07-03T17:10:36.724Z,727.07
2018-07-03T17:13:03.947Z,741.63
2018-07-03T17:15:31.117Z,746.27
2018-07-03T17:17:58.279Z,715.60
2018-07-03T17:20:25.486Z,717.63
2018-07-03T17:22:52.626Z,687.53
2018-07-03T17:25:19.828Z,675.27
2018-07-03T17:27:46.990Z,652.70
2018-07-03T17:30:14.213Z,637.13
2018-07-03T17:32:41.709Z,680.80
2018-07-03T17:35:11.002Z,624.33
2018-07-03T17:37:41.559Z,632.90
2018-07-03T17:40:20.199Z,645.87
2018-07-03T17:42:59.000Z,587.90
2018-07-03T17:45:40.978Z,585.43
2018-07-03T17:48:09.491Z,596.97
2018-07-03T17:50:36.918Z,578.17
2018-07-03T17:53:04.104Z,587.70
2018-07-03T17:55:31.920Z,575.73
2018-07-03T17:57:59.857Z,575.57
2018-07-03T18:00:28.210Z,573.00
2018-07-03T18:02:57.130Z,574.07
2018-07-03T18:05:27.844Z,573.60
2018-07-03T18:07:57.012Z,568.87
2018-07-03T18:10:24.426Z,567.67
2018-07-03T18:12:51.619Z,566.73
2018-07-03T18:15:19.234Z,574.30
2018-07-03T18:17:46.513Z,569.97
2018-07-03T18:20:13.749Z,581.13
2018-07-03T18:22:41.685Z,577.30
2018-07-03T18:25:08.930Z,572.93
2018-07-03T18:27:36.389Z,574.13
2018-07-03T18:30:04.276Z,568.83
2018-07-03T18:32:31.537Z,566.27
2018-07-03T18:34:58.729Z,563.50
2018-07-03T18:37:25.885Z,565.97
2018-07-03T18:39:53.100Z,571.13
2018-07-03T18:42:20.281Z,560.77
2018-07-03T18:44:47.476Z,559.00
2018-07-03T18:47:14.653Z,558.37
2018-07-03T18:49:41.818Z,562.63
2018-07-03T18:52:09.249Z,569.90
2018-07-03T18:54:36.543Z,557.60
2018-07-03T18:57:04.287Z,559.90
2018-07-03T18:59:31.453Z,558.80
2018-07-03T19:01:58.634Z,568.47
2018-07-03T19:04:25.872Z,563.17
2018-07-03T19:06:53.113Z,562.60
2018-07-03T19:09:20.332Z,559.97
2018-07-03T19:11:47.511Z,562.17
2018-07-03T19:14:14.821Z,551.57
2018-07-03T19:16:42.023Z,553.47
2018-07-03T19:19:09.189Z,557.53
2018-07-03T19:21:36.373Z,557.13
2018-07-03T19:24:03.603Z,558.07
2018-07-03T19:26:30.807Z,554.53
2018-07-03T19:28:58.024Z,562.17
2018-07-03T19:31:25.201Z,551.77
2018-07-03T19:33:52.502Z,547.20
2018-07-03T19:36:19.744Z,548.77
2018-07-03T19:38:47.065Z,553.30
2018-07-03T19:41:14.278Z,547.20
2018-07-03T19:43:41.433Z,546.10
2018-07-03T19:46:08.617Z,547.10
2018-07-03T19:48:35.772Z,546.93
2018-07-03T19:51:03.038Z,557.03
2018-07-03T19:53:30.193Z,544.30
2018-07-03T19:55:58.230Z,544.37
2018-07-03T19:58:25.421Z,540.73
2018-07-03T20:00:53.795Z,539.10
2018-07-03T20:03:21.013Z,542.03
2018-07-03T20:05:48.302Z,542.93
2018-07-03T20:08:15.490Z,542.63
2018-07-03T20:10:42.677Z,548.27
2018-07-03T20:13:11.880Z,540.97
2018-07-03T20:15:39.201Z,547.60
2018-07-03T20:18:07.289Z,541.77
2018-07-03T20:20:34.472Z,543.30
2018-07-03T20:23:01.645Z,542.20
2018-07-03T20:25:28.810Z,549.53
2018-07-03T20:27:56.003Z,550.87
2018-07-03T20:30:23.201Z,547.47
2018-07-03T20:32:50.372Z,544.03
2018-07-03T20:35:17.930Z,548.60
2018-07-03T20:37:53.498Z,544.53
2018-07-03T20:40:21.688Z,539.30
2018-07-03T20:42:49.133Z,544.47
2018-07-03T20:45:17.132Z,536.80
2018-07-03T20:47:44.618Z,536.67
2018-07-03T20:50:11.779Z,541.43
2018-07-03T20:52:38.997Z,538.40
2018-07-03T20:55:06.273Z,539.80
2018-07-03T20:57:33.666Z,541.50
2018-07-03T21:00:01.162Z,536.00
2018-07-03T21:02:28.358Z,536.77
2018-07-03T21:04:55.578Z,547.20
2018-07-03T21:07:23.042Z,541.70
2018-07-03T21:09:51.309Z,535.03
2018-07-03T21:12:18.549Z,537.67
2018-07-03T21:14:45.762Z,537.23
2018-07-03T21:17:12.984Z,536.47
2018-07-03T21:19:40.197Z,540.23
2018-07-03T21:22:07.405Z,539.73
2018-07-03T21:24:34.626Z,535.37
2018-07-03T21:27:01.833Z,535.53
2018-07-03T21:29:29.041Z,542.93
2018-07-03T21:31:56.300Z,538.57
2018-07-03T21:34:23.509Z,535.73
2018-07-03T21:36:50.713Z,540.97
2018-07-03T21:39:17.958Z,534.43
2018-07-03T21:41:45.139Z,545.00
2018-07-03T21:44:12.372Z,536.93
2018-07-03T21:46:39.568Z,538.73
2018-07-03T21:49:06.773Z,536.40
2018-07-03T21:51:33.976Z,535.63
2018-07-03T21:54:01.189Z,537.20
2018-07-03T21:56:28.424Z,549.10
2018-07-03T21:58:55.626Z,542.87
2018-07-03T22:01:22.841Z,541.90
2018-07-03T22:03:50.051Z,536.13
2018-07-03T22:06:17.258Z,538.47
2018-07-03T22:08:44.493Z,537.40
2018-07-03T22:11:11.704Z,534.83
2018-07-03T22:13:38.927Z,539.70
2018-07-03T22:16:06.125Z,539.43
2018-07-03T22:18:33.330Z,547.53
2018-07-03T22:21:00.551Z,544.50
2018-07-03T22:23:27.757Z,537.50
2018-07-03T22:25:54.973Z,536.50
2018-07-03T22:28:22.193Z,535.90
2018-07-03T22:30:49.405Z,537.53
2018-07-03T22:33:16.611Z,543.43
2018-07-03T22:35:43.826Z,537.77
2018-07-03T22:38:11.029Z,534.50
2018-07-03T22:40:38.234Z,536.33
2018-07-03T22:43:05.619Z,545.20
2018-07-03T22:45:32.826Z,538.93
2018-07-03T22:48:00.036Z,533.93
2018-07-03T22:50:27.245Z,540.40
2018-07-03T22:52:54.661Z,533.70
2018-07-03T22:55:22.322Z,535.10
2018-07-03T22:57:49.649Z,531.03
2018-07-03T23:00:16.862Z,531.47
2018-07-03T23:02:44.070Z,535.57
2018-07-03T23:05:11.273Z,532.10
2018-07-03T23:07:38.511Z,524.20
2018-07-03T23:10:05.741Z,536.83
2018-07-03T23:12:32.942Z,531.67
2018-07-03T23:15:00.206Z,536.67
2018-07-03T23:17:27.489Z,533.80
2018-07-03T23:19:54.701Z,534.03
2018-07-03T23:22:21.917Z,531.03
2018-07-03T23:24:49.124Z,527.67
2018-07-03T23:27:16.329Z,528.97
2018-07-03T23:29:43.653Z,533.23
2018-07-03T23:32:11.333Z,536.20
2018-07-03T23:34:38.905Z,534.57
2018-07-03T23:37:06.117Z,533.83
2018-07-03T23:39:33.350Z,530.53
2018-07-03T23:42:00.553Z,528.93
2018-07-03T23:44:27.761Z,536.30
2018-07-03T23:47:06.628Z,537.73
2018-07-03T23:49:45.385Z,538.97
2018-07-03T23:52:24.125Z,529.97
2018-07-03T23:55:02.990Z,534.77
2018-07-03T23:57:41.941Z,529.93
